createdAt,value
2017-10-08T00:00:34.257Z,0
2017-10-08T00:01:35.904Z,0
2017-10-08T00:02:37.565Z,0
2017-10-08T00:03:39.221Z,0
2017-10-08T00:04:40.882Z,0
2017-10-08T00:05:42.547Z,0
2017-10-08T00:06:44.200Z,0
2017-10-08T00:07:45.851Z,0
2017-10-08T00:08:47.522Z,0
2017-10-08T00:09:49.152Z,0
2017-10-08T00:10:50.809Z,0
2017-10-08T00:11:52.459Z,0
2017-10-08T00:12:54.112Z,0
2017-10-08T00:13:55.771Z,0
2017-10-08T00:14:57.436Z,0
2017-10-08T00:15:59.097Z,0
2017-10-08T00:17:00.766Z,0
2017-10-08T00:18:02.422Z,0
2017-10-08T00:19:04.086Z,0
2017-10-08T00:20:05.730Z,0
2017-10-08T00:21:07.378Z,0
2017-10-08T00:22:09.029Z,0
2017-10-08T00:23:10.676Z,0
2017-10-08T00:24:12.358Z,0
2017-10-08T00:25:14.002Z,0
2017-10-08T00:26:15.681Z,0
2017-10-08T00:27:17.335Z,0
2017-10-08T00:28:18.991Z,0
2017-10-08T00:29:20.645Z,0
2017-10-08T00:30:22.302Z,0
2017-10-08T00:31:23.964Z,0
2017-10-08T00:32:25.630Z,0
2017-10-08T00:33:27.338Z,0
2017-10-08T00:34:29.010Z,0
2017-10-08T00:35:30.673Z,0
2017-10-08T00:36:32.372Z,0
2017-10-08T00:37:34.028Z,0
2017-10-08T00:38:35.691Z,0
2017-10-08T00:39:37.342Z,0
2017-10-08T00:40:39.006Z,0
2017-10-08T00:41:40.659Z,0
2017-10-08T00:42:42.325Z,0
2017-10-08T00:43:43.978Z,0
2017-10-08T00:44:45.631Z,0
2017-10-08T00:45:47.285Z,0
2017-10-08T00:46:48.937Z,0
2017-10-08T00:47:50.584Z,0
2017-10-08T00:48:52.230Z,0
2017-10-08T00:49:53.884Z,0
2017-10-08T00:50:55.532Z,0
2017-10-08T00:51:57.221Z,0
2017-10-08T00:52:58.872Z,0
2017-10-08T00:54:00.581Z,0
2017-10-08T00:55:02.232Z,0
2017-10-08T00:56:03.891Z,0
2017-10-08T00:57:05.538Z,0
2017-10-08T00:58:07.185Z,0
2017-10-08T00:59:08.857Z,0
2017-10-08T01:00:10.511Z,0
2017-10-08T01:01:12.159Z,0
2017-10-08T01:02:13.850Z,0
2017-10-08T01:03:15.526Z,0
2017-10-08T01:04:17.169Z,0
2017-10-08T01:05:18.822Z,0
2017-10-08T01:06:20.475Z,0
2017-10-08T01:07:22.129Z,0
2017-10-08T01:08:23.773Z,0
2017-10-08T01:09:25.421Z,0
2017-10-08T01:10:27.076Z,0
2017-10-08T01:11:28.749Z,0
2017-10-08T01:12:30.399Z,0
2017-10-08T01:13:32.056Z,0
2017-10-08T01:14:33.704Z,0
2017-10-08T01:15:35.359Z,0
2017-10-08T01:16:37.013Z,0
2017-10-08T01:17:38.667Z,0
2017-10-08T01:18:40.330Z,0
2017-10-08T01:19:42.021Z,0
2017-10-08T01:20:43.679Z,0
2017-10-08T01:21:45.341Z,0
2017-10-08T01:22:46.986Z,0
2017-10-08T01:23:48.633Z,0
2017-10-08T01:24:50.286Z,0
2017-10-08T01:25:51.950Z,0
2017-10-08T01:26:53.608Z,0
2017-10-08T01:27:55.251Z,0
2017-10-08T01:28:56.906Z,0
2017-10-08T01:29:58.555Z,0
2017-10-08T01:31:00.206Z,0
2017-10-08T01:32:01.855Z,0
2017-10-08T01:33:03.507Z,0
2017-10-08T01:34:05.164Z,0
2017-10-08T01:35:06.810Z,0
2017-10-08T01:36:08.463Z,0
2017-10-08T01:37:10.112Z,0
2017-10-08T01:38:11.757Z,0
2017-10-08T01:39:13.404Z,0
2017-10-08T01:40:15.081Z,0
2017-10-08T01:41:16.727Z,0
2017-10-08T01:42:18.376Z,0
2017-10-08T01:43:20.033Z,0
2017-10-08T01:44:21.689Z,0
2017-10-08T01:45:23.337Z,0
2017-10-08T01:46:24.988Z,0
2017-10-08T01:47:26.665Z,0
2017-10-08T01:48:28.319Z,0
2017-10-08T01:49:29.969Z,0
2017-10-08T01:50:31.620Z,0
2017-10-08T01:51:33.285Z,0
2017-10-08T01:52:34.941Z,0
2017-10-08T01:53:36.584Z,0
2017-10-08T01:54:38.233Z,0
2017-10-08T01:55:39.881Z,0
2017-10-08T02:01:51.253Z,0
2017-10-08T02:02:52.893Z,0
2017-10-08T02:03:54.535Z,0
2017-10-08T02:04:56.185Z,0
2017-10-08T02:05:57.841Z,0
2017-10-08T02:06:59.493Z,0
2017-10-08T02:08:01.146Z,0
2017-10-08T02:09:02.796Z,0
2017-10-08T02:10:04.443Z,0
2017-10-08T02:11:06.090Z,0
2017-10-08T02:12:07.738Z,0
2017-10-08T02:13:09.438Z,0
2017-10-08T02:14:11.146Z,0
2017-10-08T02:15:12.803Z,0
2017-10-08T02:16:14.459Z,0
2017-10-08T02:17:16.099Z,0
2017-10-08T02:18:17.747Z,0
2017-10-08T02:19:19.400Z,0
2017-10-08T02:20:21.056Z,0
2017-10-08T02:21:22.707Z,0
2017-10-08T02:22:24.355Z,0
2017-10-08T02:23:26.007Z,0
2017-10-08T02:24:27.660Z,0
2017-10-08T02:25:29.305Z,0
2017-10-08T02:26:30.952Z,0
2017-10-08T02:27:32.606Z,0
2017-10-08T02:28:34.256Z,0
2017-10-08T02:29:35.904Z,0
2017-10-08T02:30:37.555Z,0
2017-10-08T02:31:39.203Z,0
2017-10-08T02:32:40.855Z,0
2017-10-08T02:33:42.505Z,0
2017-10-08T02:34:44.156Z,0
2017-10-08T02:35:45.802Z,0
2017-10-08T02:36:47.461Z,0
2017-10-08T02:37:49.102Z,0
2017-10-08T02:38:50.876Z,0
2017-10-08T02:39:52.525Z,0
2017-10-08T02:40:54.179Z,0
2017-10-08T02:41:55.830Z,0
2017-10-08T02:42:57.478Z,0
2017-10-08T02:43:59.128Z,0
2017-10-08T02:45:00.784Z,0
2017-10-08T02:46:02.442Z,0
2017-10-08T02:47:04.090Z,0
2017-10-08T02:48:05.740Z,0
2017-10-08T02:49:07.389Z,0
2017-10-08T02:50:09.048Z,0
2017-10-08T02:51:10.705Z,0
2017-10-08T02:52:12.360Z,0
2017-10-08T02:53:14.009Z,0
2017-10-08T02:54:15.682Z,0
2017-10-08T02:55:17.332Z,0
2017-10-08T02:56:18.979Z,0
2017-10-08T02:57:20.671Z,0
2017-10-08T02:58:22.370Z,0
2017-10-08T02:59:24.028Z,0
2017-10-08T03:00:25.680Z,0
2017-10-08T03:01:27.402Z,0
2017-10-08T03:02:29.048Z,0
2017-10-08T03:03:30.698Z,0
2017-10-08T03:04:32.347Z,0
2017-10-08T03:05:33.998Z,0
2017-10-08T03:06:35.654Z,0
2017-10-08T03:07:37.296Z,0
2017-10-08T03:08:38.951Z,0
2017-10-08T03:09:40.597Z,0
2017-10-08T03:10:42.241Z,0
2017-10-08T03:11:43.886Z,0
2017-10-08T03:12:45.536Z,0
2017-10-08T03:13:47.200Z,0
2017-10-08T03:14:48.845Z,0
2017-10-08T03:15:50.499Z,0
2017-10-08T03:16:52.155Z,0
2017-10-08T03:17:53.804Z,0
2017-10-08T03:18:55.503Z,0
2017-10-08T03:19:57.156Z,0
2017-10-08T03:20:58.806Z,0
2017-10-08T03:22:00.458Z,0
2017-10-08T03:23:02.105Z,0
2017-10-08T03:24:03.756Z,0
2017-10-08T03:25:05.457Z,0
2017-10-08T03:26:07.108Z,0
2017-10-08T03:27:08.760Z,0
2017-10-08T03:28:10.419Z,0
2017-10-08T03:29:12.066Z,0
2017-10-08T03:30:13.718Z,0
2017-10-08T03:31:15.412Z,0
2017-10-08T03:32:17.066Z,0
2017-10-08T03:33:18.721Z,0
2017-10-08T03:34:20.371Z,0
2017-10-08T03:35:22.021Z,0
2017-10-08T03:36:23.669Z,0
2017-10-08T03:37:25.316Z,0
2017-10-08T03:38:26.971Z,0
2017-10-08T03:39:28.648Z,0
2017-10-08T03:40:30.267Z,0
2017-10-08T03:41:31.921Z,0
2017-10-08T03:42:33.581Z,0
2017-10-08T03:43:35.243Z,0
2017-10-08T03:44:36.903Z,0
2017-10-08T03:45:38.566Z,0
2017-10-08T03:46:40.220Z,0
2017-10-08T03:47:41.865Z,0
2017-10-08T03:48:43.530Z,0
2017-10-08T03:49:45.180Z,0
2017-10-08T03:50:46.827Z,0
2017-10-08T03:51:48.471Z,0
2017-10-08T03:52:50.122Z,0
2017-10-08T03:53:51.779Z,0
2017-10-08T03:54:53.432Z,0
2017-10-08T03:55:55.083Z,0
2017-10-08T03:56:56.729Z,0
2017-10-08T03:57:58.379Z,0
2017-10-08T03:59:00.028Z,0
2017-10-08T04:00:01.686Z,0
2017-10-08T04:01:03.352Z,0
2017-10-08T04:02:05.002Z,0
2017-10-08T04:03:06.657Z,0
2017-10-08T04:04:08.308Z,0
2017-10-08T04:05:09.957Z,0
2017-10-08T04:06:11.598Z,0
2017-10-08T04:07:13.252Z,0
2017-10-08T04:08:14.910Z,0
2017-10-08T04:09:16.558Z,0
2017-10-08T04:10:18.222Z,0
2017-10-08T04:11:19.879Z,0
2017-10-08T04:12:21.534Z,0
2017-10-08T04:13:23.186Z,0
2017-10-08T04:14:24.853Z,0
2017-10-08T04:15:26.508Z,0
2017-10-08T04:16:28.187Z,0
2017-10-08T04:17:29.846Z,0
2017-10-08T04:18:31.502Z,0
2017-10-08T04:19:33.148Z,0
2017-10-08T04:20:34.806Z,0
2017-10-08T04:21:36.456Z,0
2017-10-08T04:22:38.134Z,0
2017-10-08T04:23:39.792Z,0
2017-10-08T04:24:41.438Z,0
2017-10-08T04:25:43.090Z,0
2017-10-08T04:26:44.737Z,0
2017-10-08T04:27:46.417Z,0
2017-10-08T04:28:48.065Z,0
2017-10-08T04:29:49.740Z,0
2017-10-08T04:30:52.034Z,0
2017-10-08T04:31:53.701Z,0
2017-10-08T04:32:55.362Z,0
2017-10-08T04:33:57.010Z,0
2017-10-08T04:34:58.661Z,0
2017-10-08T04:36:00.306Z,0
2017-10-08T04:37:01.961Z,0
2017-10-08T04:38:03.617Z,0
2017-10-08T04:39:05.266Z,0
2017-10-08T04:40:06.929Z,0
2017-10-08T04:41:08.581Z,0
2017-10-08T04:42:10.233Z,0
2017-10-08T04:43:12.799Z,0
2017-10-08T04:44:14.449Z,0
2017-10-08T04:45:16.587Z,0
2017-10-08T04:46:18.757Z,0
2017-10-08T04:47:20.420Z,0
2017-10-08T04:48:22.068Z,0
2017-10-08T04:49:23.726Z,0
2017-10-08T04:50:25.377Z,0
2017-10-08T04:51:27.038Z,0
2017-10-08T04:52:28.695Z,0
2017-10-08T04:53:30.352Z,0
2017-10-08T04:54:32.008Z,0
2017-10-08T04:55:33.673Z,0
2017-10-08T04:56:35.335Z,0
2017-10-08T04:57:36.988Z,0
2017-10-08T04:58:38.638Z,0
2017-10-08T04:59:40.290Z,0
2017-10-08T05:00:41.952Z,0
2017-10-08T05:01:43.613Z,0
2017-10-08T05:02:45.265Z,0
2017-10-08T05:03:46.909Z,0
2017-10-08T05:04:48.572Z,0
2017-10-08T05:05:50.248Z,0
2017-10-08T05:06:51.887Z,0
2017-10-08T05:07:53.545Z,0
2017-10-08T05:08:55.196Z,0
2017-10-08T05:09:56.853Z,0
2017-10-08T05:10:58.500Z,0
2017-10-08T05:12:00.152Z,0
2017-10-08T05:13:01.798Z,0
2017-10-08T05:14:03.447Z,0
2017-10-08T05:15:05.104Z,0
2017-10-08T05:16:06.764Z,0
2017-10-08T05:17:08.411Z,0
2017-10-08T05:18:10.059Z,0
2017-10-08T05:19:11.712Z,0
2017-10-08T05:20:13.372Z,0
2017-10-08T05:21:15.059Z,0
2017-10-08T05:22:16.723Z,0
2017-10-08T05:23:18.382Z,0
2017-10-08T05:24:20.043Z,0
2017-10-08T05:25:21.696Z,0
2017-10-08T05:26:23.359Z,0
2017-10-08T05:27:25.040Z,0
2017-10-08T05:28:26.690Z,0
2017-10-08T05:29:28.343Z,0
2017-10-08T05:30:30.001Z,0
2017-10-08T05:31:31.658Z,0
2017-10-08T05:32:33.311Z,0
2017-10-08T05:33:34.966Z,0
2017-10-08T05:34:36.630Z,0
2017-10-08T05:35:38.296Z,0
2017-10-08T05:36:39.954Z,0
2017-10-08T05:37:41.605Z,5
2017-10-08T05:38:43.270Z,5
2017-10-08T05:39:44.919Z,5
2017-10-08T05:40:46.570Z,0
2017-10-08T05:41:48.227Z,5
2017-10-08T05:42:49.894Z,5
2017-10-08T05:43:51.557Z,5
2017-10-08T05:44:53.212Z,5
2017-10-08T05:45:54.866Z,5
2017-10-08T05:46:56.525Z,5
2017-10-08T05:47:58.188Z,5
2017-10-08T05:48:59.838Z,5
2017-10-08T05:50:01.542Z,5
2017-10-08T05:51:03.206Z,5
2017-10-08T05:52:04.866Z,10
2017-10-08T05:53:06.559Z,15
2017-10-08T05:54:08.220Z,15
2017-10-08T05:55:09.880Z,20
2017-10-08T06:01:25.760Z,50
2017-10-08T06:02:27.420Z,55
2017-10-08T06:03:29.071Z,55
2017-10-08T06:04:30.726Z,55
2017-10-08T06:05:32.376Z,45
2017-10-08T06:06:34.030Z,60
2017-10-08T06:07:35.705Z,70
2017-10-08T06:08:37.454Z,40
2017-10-08T06:09:39.116Z,25
2017-10-08T06:10:40.784Z,30
2017-10-08T06:11:42.436Z,40
2017-10-08T06:12:44.096Z,55
2017-10-08T06:13:45.714Z,70
2017-10-08T06:14:47.377Z,85
2017-10-08T06:15:49.035Z,100
2017-10-08T06:16:50.694Z,110
2017-10-08T06:17:52.356Z,105
2017-10-08T06:18:54.016Z,110
2017-10-08T06:19:55.680Z,115
2017-10-08T06:20:57.336Z,120
2017-10-08T06:21:58.998Z,140
2017-10-08T06:23:00.735Z,160
2017-10-08T06:24:02.345Z,165
2017-10-08T06:25:04.006Z,145
2017-10-08T06:26:05.666Z,140
2017-10-08T06:27:07.324Z,150
2017-10-08T06:28:08.982Z,150
2017-10-08T06:29:10.651Z,145
2017-10-08T06:30:12.307Z,145
2017-10-08T06:31:13.968Z,165
2017-10-08T06:32:15.649Z,185
2017-10-08T06:33:17.305Z,200
2017-10-08T06:34:18.969Z,220
2017-10-08T06:35:20.625Z,240
2017-10-08T06:36:22.285Z,250
2017-10-08T06:37:23.944Z,255
2017-10-08T06:38:25.600Z,245
2017-10-08T06:39:27.254Z,260
2017-10-08T06:40:28.925Z,275
2017-10-08T06:41:30.587Z,240
2017-10-08T06:42:32.247Z,195
2017-10-08T06:43:33.909Z,175
2017-10-08T06:44:35.575Z,210
2017-10-08T06:45:37.231Z,255
2017-10-08T06:46:38.892Z,220
2017-10-08T06:47:40.540Z,135
2017-10-08T06:48:42.204Z,95
2017-10-08T06:49:43.867Z,85
2017-10-08T06:50:45.531Z,70
2017-10-08T06:51:47.192Z,65
2017-10-08T06:52:48.847Z,60
2017-10-08T06:53:50.526Z,60
2017-10-08T06:54:52.189Z,60
2017-10-08T06:55:53.846Z,60
2017-10-08T06:56:55.593Z,70
2017-10-08T06:57:57.249Z,65
2017-10-08T06:58:58.915Z,70
2017-10-08T07:00:00.672Z,70
2017-10-08T07:01:02.338Z,85
2017-10-08T07:02:04.013Z,110
2017-10-08T07:03:05.677Z,125
2017-10-08T07:04:07.344Z,135
2017-10-08T07:05:09.045Z,140
2017-10-08T07:06:10.711Z,140
2017-10-08T07:07:12.391Z,150
2017-10-08T07:08:14.052Z,145
2017-10-08T07:09:15.740Z,135
2017-10-08T07:10:17.425Z,90
2017-10-08T07:11:19.136Z,80
2017-10-08T07:12:20.797Z,95
2017-10-08T07:13:22.461Z,120
2017-10-08T07:14:24.200Z,160
2017-10-08T07:15:25.857Z,130
2017-10-08T07:16:27.512Z,105
2017-10-08T07:17:29.174Z,125
2017-10-08T07:18:30.850Z,175
2017-10-08T07:19:32.512Z,215
2017-10-08T07:20:34.168Z,195
2017-10-08T07:21:35.824Z,180
2017-10-08T07:22:37.491Z,185
2017-10-08T07:23:39.168Z,145
2017-10-08T07:24:40.845Z,125
2017-10-08T07:25:42.494Z,105
2017-10-08T07:26:44.410Z,85
2017-10-08T07:27:46.074Z,80
2017-10-08T07:28:47.781Z,90
2017-10-08T07:29:49.442Z,80
2017-10-08T07:30:51.102Z,95
2017-10-08T07:31:52.784Z,115
2017-10-08T07:32:54.448Z,145
2017-10-08T07:33:56.115Z,230
2017-10-08T07:34:57.794Z,190
2017-10-08T07:35:59.455Z,130
2017-10-08T07:37:01.122Z,130
2017-10-08T07:38:02.785Z,145
2017-10-08T07:39:04.448Z,140
2017-10-08T07:40:06.109Z,125
2017-10-08T07:41:07.805Z,150
2017-10-08T07:42:09.466Z,150
2017-10-08T07:43:11.126Z,165
2017-10-08T07:44:12.787Z,200
2017-10-08T07:45:14.445Z,215
2017-10-08T07:46:16.111Z,210
2017-10-08T07:47:17.764Z,255
2017-10-08T07:48:19.426Z,315
2017-10-08T07:49:21.096Z,355
2017-10-08T07:50:22.748Z,310
2017-10-08T07:51:24.404Z,260
2017-10-08T07:52:26.068Z,225
2017-10-08T07:53:27.757Z,215
2017-10-08T07:54:29.427Z,205
2017-10-08T07:55:31.097Z,200
2017-10-08T07:56:32.756Z,205
2017-10-08T07:57:34.416Z,200
2017-10-08T07:58:36.074Z,220
2017-10-08T07:59:37.742Z,240
2017-10-08T08:00:39.421Z,275
2017-10-08T08:01:41.239Z,240
2017-10-08T08:02:42.904Z,255
2017-10-08T08:03:44.563Z,270
2017-10-08T08:04:46.224Z,275
2017-10-08T08:05:47.892Z,275
2017-10-08T08:06:49.555Z,280
2017-10-08T08:07:51.334Z,285
2017-10-08T08:08:53.005Z,275
2017-10-08T08:09:54.680Z,255
2017-10-08T08:10:56.345Z,255
2017-10-08T08:11:58.003Z,310
2017-10-08T08:12:59.670Z,275
2017-10-08T08:14:01.396Z,275
2017-10-08T08:15:03.079Z,305
2017-10-08T08:16:04.762Z,325
2017-10-08T08:17:06.508Z,320
2017-10-08T08:18:08.272Z,260
2017-10-08T08:19:09.927Z,240
2017-10-08T08:20:11.585Z,280
2017-10-08T08:21:13.265Z,300
2017-10-08T08:22:14.974Z,335
2017-10-08T08:23:16.614Z,300
2017-10-08T08:24:18.293Z,265
2017-10-08T08:25:19.951Z,260
2017-10-08T08:26:21.693Z,230
2017-10-08T08:27:23.369Z,215
2017-10-08T08:28:25.065Z,260
2017-10-08T08:29:26.806Z,365
2017-10-08T08:30:28.460Z,405
2017-10-08T08:31:30.132Z,350
2017-10-08T08:32:31.791Z,280
2017-10-08T08:33:33.474Z,210
2017-10-08T08:34:35.532Z,220
2017-10-08T08:35:37.175Z,235
2017-10-08T08:36:38.828Z,265
2017-10-08T08:37:40.679Z,305
2017-10-08T08:38:42.340Z,340
2017-10-08T08:39:44.065Z,335
2017-10-08T08:40:45.777Z,325
2017-10-08T08:41:47.566Z,295
2017-10-08T08:42:49.315Z,300
2017-10-08T08:43:51.057Z,310
2017-10-08T08:44:52.679Z,295
2017-10-08T08:45:54.335Z,265
2017-10-08T08:46:55.995Z,260
2017-10-08T08:47:57.657Z,230
2017-10-08T08:48:59.347Z,220
2017-10-08T08:50:01.009Z,245
2017-10-08T08:51:02.675Z,275
2017-10-08T08:52:04.343Z,345
2017-10-08T08:53:06.044Z,385
2017-10-08T08:54:07.720Z,385
2017-10-08T08:55:09.444Z,315
2017-10-08T08:56:11.107Z,245
2017-10-08T08:57:12.769Z,260
2017-10-08T08:58:14.427Z,275
2017-10-08T08:59:16.128Z,310
2017-10-08T09:00:17.874Z,380
2017-10-08T09:01:19.548Z,450
2017-10-08T09:02:21.203Z,485
2017-10-08T09:03:22.862Z,445
2017-10-08T09:04:24.522Z,420
2017-10-08T09:05:26.185Z,415
2017-10-08T09:06:27.854Z,465
2017-10-08T09:07:29.521Z,450
2017-10-08T09:08:31.224Z,445
2017-10-08T09:09:32.975Z,445
2017-10-08T09:10:34.642Z,440
2017-10-08T09:11:36.308Z,355
2017-10-08T09:12:37.970Z,300
2017-10-08T09:13:39.865Z,295
2017-10-08T09:14:41.532Z,310
2017-10-08T09:15:43.203Z,330
2017-10-08T09:16:44.875Z,340
2017-10-08T09:17:46.542Z,315
2017-10-08T09:18:48.202Z,350
2017-10-08T09:19:49.887Z,410
2017-10-08T09:20:51.551Z,445
2017-10-08T09:21:53.212Z,460
2017-10-08T09:22:54.883Z,460
2017-10-08T09:23:56.549Z,465
2017-10-08T09:24:58.217Z,345
2017-10-08T09:25:59.879Z,285
2017-10-08T09:27:01.537Z,300
2017-10-08T09:28:03.199Z,355
2017-10-08T09:29:04.858Z,400
2017-10-08T09:30:06.530Z,380
2017-10-08T09:31:08.197Z,530
2017-10-08T09:32:09.857Z,545
2017-10-08T09:33:11.514Z,455
2017-10-08T09:34:13.183Z,485
2017-10-08T09:35:14.841Z,520
2017-10-08T09:36:16.502Z,465
2017-10-08T09:37:18.170Z,495
2017-10-08T09:38:19.824Z,525
2017-10-08T09:39:21.488Z,555
2017-10-08T09:40:23.145Z,645
2017-10-08T09:41:24.832Z,770
2017-10-08T09:42:26.495Z,875
2017-10-08T09:43:28.168Z,1405
2017-10-08T09:44:29.839Z,1440
2017-10-08T09:45:31.515Z,1355
2017-10-08T09:46:33.184Z,1565
2017-10-08T09:47:34.847Z,1565
2017-10-08T09:48:36.508Z,1195
2017-10-08T09:49:38.172Z,1200
2017-10-08T09:50:39.839Z,940
2017-10-08T09:51:41.504Z,945
2017-10-08T09:52:43.161Z,1085
2017-10-08T09:53:44.825Z,995
2017-10-08T09:54:46.516Z,605
2017-10-08T10:01:00.370Z,665
2017-10-08T10:02:02.044Z,735
2017-10-08T10:03:54.049Z,495
2017-10-08T10:04:55.731Z,465
2017-10-08T10:05:57.707Z,455
2017-10-08T10:06:59.373Z,620
2017-10-08T10:08:01.041Z,680
2017-10-08T10:09:02.710Z,620
2017-10-08T10:10:04.393Z,500
2017-10-08T10:11:06.058Z,445
2017-10-08T10:12:07.715Z,560
2017-10-08T10:13:09.602Z,590
2017-10-08T10:14:11.263Z,495
2017-10-08T10:15:12.932Z,535
2017-10-08T10:16:14.601Z,550
2017-10-08T10:17:16.330Z,495
2017-10-08T10:18:18.116Z,555
2017-10-08T10:19:19.993Z,495
2017-10-08T10:20:21.810Z,425
2017-10-08T10:21:23.254Z,400
2017-10-08T10:22:24.950Z,455
2017-10-08T10:23:26.625Z,510
2017-10-08T10:24:28.928Z,460
2017-10-08T10:25:30.605Z,410
2017-10-08T10:26:32.270Z,400
2017-10-08T10:27:33.937Z,560
2017-10-08T10:28:35.621Z,690
2017-10-08T10:29:37.297Z,580
2017-10-08T10:30:38.951Z,415
2017-10-08T10:31:40.644Z,365
2017-10-08T10:32:42.316Z,400
2017-10-08T10:33:43.980Z,510
2017-10-08T10:34:45.958Z,485
2017-10-08T10:35:47.595Z,480
2017-10-08T10:36:49.281Z,555
2017-10-08T10:37:50.965Z,550
2017-10-08T10:38:52.624Z,475
2017-10-08T10:39:54.301Z,535
2017-10-08T10:40:55.968Z,430
2017-10-08T10:41:57.631Z,270
2017-10-08T10:42:59.364Z,225
2017-10-08T10:44:01.026Z,185
2017-10-08T10:45:02.700Z,230
2017-10-08T10:46:04.373Z,245
2017-10-08T10:47:06.054Z,280
2017-10-08T10:48:07.727Z,245
2017-10-08T10:49:09.386Z,280
2017-10-08T10:50:11.061Z,355
2017-10-08T10:51:12.746Z,435
2017-10-08T10:52:14.413Z,490
2017-10-08T10:53:16.104Z,520
2017-10-08T10:54:17.773Z,670
2017-10-08T10:55:19.441Z,870
2017-10-08T10:56:21.101Z,1005
2017-10-08T10:57:22.808Z,1030
2017-10-08T10:58:24.500Z,1055
2017-10-08T10:59:26.174Z,935
2017-10-08T11:00:27.842Z,925
2017-10-08T11:01:29.512Z,950
2017-10-08T11:02:31.170Z,925
2017-10-08T11:03:32.831Z,865
2017-10-08T11:04:34.493Z,825
2017-10-08T11:05:36.165Z,735
2017-10-08T11:06:37.831Z,775
2017-10-08T11:07:39.528Z,1070
2017-10-08T11:08:41.258Z,1040
2017-10-08T11:09:43.463Z,855
2017-10-08T11:10:45.136Z,1640
2017-10-08T11:11:46.807Z,1560
2017-10-08T11:12:48.469Z,1065
2017-10-08T11:13:50.141Z,925
2017-10-08T11:14:51.810Z,990
2017-10-08T11:15:53.488Z,1230
2017-10-08T11:16:55.150Z,1220
2017-10-08T11:17:56.841Z,1320
2017-10-08T11:18:58.580Z,995
2017-10-08T11:20:00.229Z,750
2017-10-08T11:21:01.931Z,720
2017-10-08T11:22:03.620Z,740
2017-10-08T11:23:05.298Z,720
2017-10-08T11:24:06.971Z,785
2017-10-08T11:25:08.671Z,890
2017-10-08T11:26:10.352Z,855
2017-10-08T11:27:12.027Z,985
2017-10-08T11:28:13.704Z,995
2017-10-08T11:29:15.416Z,955
2017-10-08T11:30:17.091Z,1070
2017-10-08T11:31:18.878Z,785
2017-10-08T11:32:20.564Z,830
2017-10-08T11:33:22.244Z,950
2017-10-08T11:34:23.918Z,890
2017-10-08T11:35:25.589Z,905
2017-10-08T11:36:27.268Z,960
2017-10-08T11:37:28.982Z,985
2017-10-08T11:38:30.648Z,1060
2017-10-08T11:39:32.336Z,1265
2017-10-08T11:40:34.025Z,1280
2017-10-08T11:41:35.701Z,1210
2017-10-08T11:42:37.380Z,1065
2017-10-08T11:43:39.065Z,1135
2017-10-08T11:44:40.751Z,1350
2017-10-08T11:45:42.493Z,1230
2017-10-08T11:46:44.164Z,1205
2017-10-08T11:47:45.861Z,1235
2017-10-08T11:48:47.576Z,1160
2017-10-08T11:49:49.260Z,1000
2017-10-08T11:50:50.937Z,935
2017-10-08T11:51:52.609Z,830
2017-10-08T11:52:54.289Z,775
2017-10-08T11:53:55.979Z,675
2017-10-08T11:54:57.627Z,790
2017-10-08T11:55:59.309Z,760
2017-10-08T11:57:00.989Z,760
2017-10-08T11:58:02.895Z,790
2017-10-08T11:59:04.566Z,770
2017-10-08T12:00:06.249Z,785
2017-10-08T12:01:07.914Z,680
2017-10-08T12:02:09.574Z,825
2017-10-08T12:03:11.265Z,870
2017-10-08T12:04:12.930Z,805
2017-10-08T12:05:14.605Z,890
2017-10-08T12:06:16.270Z,835
2017-10-08T12:07:17.939Z,770
2017-10-08T12:08:19.599Z,1110
2017-10-08T12:09:21.331Z,1465
2017-10-08T12:10:23.003Z,1155
2017-10-08T12:11:24.687Z,1160
2017-10-08T12:12:26.357Z,1110
2017-10-08T12:13:28.028Z,820
2017-10-08T12:14:29.754Z,730
2017-10-08T12:15:31.432Z,870
2017-10-08T12:16:33.108Z,1385
2017-10-08T12:17:34.774Z,1370
2017-10-08T12:18:36.471Z,1245
2017-10-08T12:19:38.136Z,1055
2017-10-08T12:20:39.815Z,965
2017-10-08T12:21:41.477Z,900
2017-10-08T12:22:43.148Z,1330
2017-10-08T12:23:44.817Z,820
2017-10-08T12:24:46.485Z,800
2017-10-08T12:25:48.158Z,815
2017-10-08T12:26:49.817Z,815
2017-10-08T12:27:51.508Z,780
2017-10-08T12:28:53.189Z,710
2017-10-08T12:29:54.860Z,625
2017-10-08T12:30:56.563Z,595
2017-10-08T12:31:58.232Z,560
2017-10-08T12:32:59.898Z,395
2017-10-08T12:34:01.616Z,290
2017-10-08T12:35:03.281Z,240
2017-10-08T12:36:04.939Z,205
2017-10-08T12:37:06.667Z,190
2017-10-08T12:38:08.325Z,200
2017-10-08T12:39:10.009Z,265
2017-10-08T12:40:11.716Z,340
2017-10-08T12:41:13.375Z,430
2017-10-08T12:42:15.072Z,470
2017-10-08T12:43:16.751Z,470
2017-10-08T12:44:18.418Z,515
2017-10-08T12:45:20.086Z,590
2017-10-08T12:46:21.769Z,595
2017-10-08T12:47:23.554Z,545
2017-10-08T12:48:25.210Z,570
2017-10-08T12:49:26.899Z,640
2017-10-08T12:50:28.567Z,665
2017-10-08T12:51:30.338Z,650
2017-10-08T12:52:32.328Z,655
2017-10-08T12:53:33.998Z,720
2017-10-08T12:54:35.665Z,710
2017-10-08T12:55:37.330Z,760
2017-10-08T12:56:38.997Z,760
2017-10-08T12:57:40.658Z,740
2017-10-08T12:58:42.318Z,785
2017-10-08T12:59:43.988Z,730
2017-10-08T13:00:45.671Z,760
2017-10-08T13:01:47.316Z,775
2017-10-08T13:02:48.973Z,650
2017-10-08T13:03:50.643Z,625
2017-10-08T13:04:52.312Z,675
2017-10-08T13:05:53.994Z,700
2017-10-08T13:06:55.655Z,750
2017-10-08T13:07:57.331Z,730
2017-10-08T13:08:59.001Z,650
2017-10-08T13:10:00.677Z,635
2017-10-08T13:11:02.351Z,680
2017-10-08T13:12:04.015Z,675
2017-10-08T13:13:05.683Z,655
2017-10-08T13:14:07.349Z,720
2017-10-08T13:15:09.014Z,660
2017-10-08T13:16:10.697Z,605
2017-10-08T13:17:12.378Z,590
2017-10-08T13:18:14.158Z,660
2017-10-08T13:19:15.907Z,750
2017-10-08T13:20:17.586Z,745
2017-10-08T13:21:19.355Z,720
2017-10-08T13:22:21.207Z,730
2017-10-08T13:23:22.888Z,645
2017-10-08T13:24:24.575Z,660
2017-10-08T13:25:26.244Z,695
2017-10-08T13:26:27.917Z,735
2017-10-08T13:27:29.605Z,725
2017-10-08T13:28:31.275Z,655
2017-10-08T13:29:32.994Z,565
2017-10-08T13:30:34.703Z,590
2017-10-08T13:31:36.387Z,595
2017-10-08T13:32:38.512Z,600
2017-10-08T13:33:40.196Z,615
2017-10-08T13:34:41.874Z,605
2017-10-08T13:35:43.536Z,635
2017-10-08T13:36:45.437Z,720
2017-10-08T13:37:47.150Z,795
2017-10-08T13:38:49.069Z,925
2017-10-08T13:39:50.756Z,935
2017-10-08T13:40:52.419Z,810
2017-10-08T13:41:54.169Z,735
2017-10-08T13:42:55.869Z,745
2017-10-08T13:43:57.605Z,725
2017-10-08T13:44:59.283Z,735
2017-10-08T13:46:00.934Z,640
2017-10-08T13:47:02.847Z,610
2017-10-08T13:48:04.528Z,570
2017-10-08T13:49:06.223Z,560
2017-10-08T13:50:07.949Z,575
2017-10-08T13:51:09.639Z,560
2017-10-08T13:52:11.355Z,525
2017-10-08T13:53:13.050Z,500
2017-10-08T13:54:14.721Z,450
2017-10-08T13:55:16.388Z,415
2017-10-08T14:01:49.776Z,280
2017-10-08T14:02:51.449Z,255
2017-10-08T14:03:53.434Z,290
2017-10-08T14:04:55.291Z,275
2017-10-08T14:05:56.976Z,245
2017-10-08T14:06:59.092Z,230
2017-10-08T14:08:00.803Z,235
2017-10-08T14:09:02.432Z,210
2017-10-08T14:10:04.127Z,265
2017-10-08T14:11:07.280Z,255
2017-10-08T14:12:08.760Z,190
2017-10-08T14:13:10.483Z,180
2017-10-08T14:14:12.181Z,185
2017-10-08T14:15:13.897Z,175
2017-10-08T14:16:15.607Z,185
2017-10-08T14:17:17.328Z,170
2017-10-08T14:18:19.049Z,150
2017-10-08T14:19:20.722Z,170
2017-10-08T14:20:22.432Z,220
2017-10-08T14:21:24.108Z,275
2017-10-08T14:22:25.806Z,210
2017-10-08T14:23:27.506Z,140
2017-10-08T14:24:29.251Z,135
2017-10-08T14:25:30.928Z,140
2017-10-08T14:26:32.617Z,145
2017-10-08T14:27:34.409Z,180
2017-10-08T14:28:36.079Z,205
2017-10-08T14:29:37.740Z,195
2017-10-08T14:30:39.893Z,210
2017-10-08T14:31:41.551Z,205
2017-10-08T14:32:43.226Z,180
2017-10-08T14:33:44.974Z,190
2017-10-08T14:34:46.688Z,180
2017-10-08T14:35:48.417Z,195
2017-10-08T14:36:50.105Z,265
2017-10-08T14:37:51.781Z,295
2017-10-08T14:38:53.437Z,265
2017-10-08T14:39:55.114Z,245
2017-10-08T14:41:00.624Z,260
2017-10-08T14:42:02.088Z,210
2017-10-08T14:43:03.764Z,155
2017-10-08T14:44:05.497Z,135
2017-10-08T14:45:07.156Z,115
2017-10-08T14:46:08.827Z,130
2017-10-08T14:47:10.485Z,230
2017-10-08T14:48:12.152Z,250
2017-10-08T14:49:13.830Z,215
2017-10-08T14:50:15.533Z,200
2017-10-08T14:51:17.194Z,200
2017-10-08T14:52:18.894Z,210
2017-10-08T14:53:20.597Z,230
2017-10-08T14:54:22.241Z,215
2017-10-08T14:55:23.903Z,165